createdAt,value
2023-05-22T00:02:25.400Z,75.92
2023-05-22T00:04:53.466Z,76.04
2023-05-22T00:07:23.180Z,75.51
2023-05-22T00:09:51.136Z,75.53
2023-05-22T00:12:19.201Z,75.64
2023-05-22T00:14:47.484Z,75.75
2023-05-22T00:17:16.739Z,75.79
2023-05-22T00:19:46.386Z,75.82
2023-05-22T00:22:14.765Z,75.76
2023-05-22T00:24:42.817Z,75.88
2023-05-22T00:27:10.816Z,76.19
2023-05-22T00:29:38.959Z,75.93
2023-05-22T00:32:07.811Z,75.86
2023-05-22T00:34:36.027Z,76.04
2023-05-22T00:37:06.093Z,75.86
2023-05-22T00:39:34.277Z,76.17
2023-05-22T00:42:02.920Z,76.19
2023-05-22T00:44:31.362Z,76.49
2023-05-22T00:47:00.029Z,76.11
2023-05-22T00:49:28.405Z,76.50
2023-05-22T00:51:56.451Z,76.34
2023-05-22T00:54:26.036Z,75.87
2023-05-22T00:56:54.481Z,76.33
2023-05-22T00:59:22.814Z,76.00
2023-05-22T01:01:51.354Z,76.28
2023-05-22T01:04:20.020Z,76.71
2023-05-22T01:06:48.924Z,77.03
2023-05-22T01:09:17.270Z,77.56
2023-05-22T01:11:57.317Z,77.90
2023-05-22T01:14:34.982Z,78.00
2023-05-22T01:17:22.874Z,78.14
2023-05-22T01:20:07.116Z,77.65
2023-05-22T01:23:12.150Z,77.78
2023-05-22T01:26:13.540Z,77.16
2023-05-22T01:28:57.571Z,77.01
2023-05-22T01:31:31.118Z,76.87
2023-05-22T01:34:04.960Z,77.09
2023-05-22T01:36:36.558Z,76.94
2023-05-22T01:39:06.547Z,77.71
2023-05-22T01:41:35.927Z,77.78
2023-05-22T01:44:04.798Z,78.11
2023-05-22T01:46:34.627Z,78.30
2023-05-22T01:49:03.119Z,78.42
2023-05-22T01:51:40.339Z,78.21
2023-05-22T01:54:18.331Z,77.82
2023-05-22T01:56:55.059Z,77.85
2023-05-22T01:59:31.072Z,77.68
2023-05-22T02:02:06.337Z,78.37
2023-05-22T02:04:40.138Z,78.25
2023-05-22T02:07:11.995Z,78.49
2023-05-22T02:09:41.618Z,78.88
2023-05-22T02:12:10.820Z,78.66
2023-05-22T02:14:39.722Z,78.62
2023-05-22T02:17:09.419Z,78.58
2023-05-22T02:19:37.913Z,78.32
2023-05-22T02:22:06.722Z,78.35
2023-05-22T02:24:36.966Z,78.33
2023-05-22T02:27:05.285Z,78.03
2023-05-22T02:29:33.724Z,78.02
2023-05-22T02:32:02.053Z,78.41
2023-05-22T02:34:32.358Z,78.96
2023-05-22T02:37:00.999Z,79.04
2023-05-22T02:39:29.261Z,78.62
2023-05-22T02:41:57.268Z,78.36
2023-05-22T02:44:25.419Z,79.04
2023-05-22T02:46:53.435Z,79.33
2023-05-22T02:49:21.845Z,79.11
2023-05-22T02:51:51.475Z,79.21
2023-05-22T02:54:19.453Z,79.34
2023-05-22T02:56:47.414Z,78.97
2023-05-22T02:59:16.603Z,79.13
2023-05-22T03:01:45.273Z,79.42
2023-05-22T03:04:14.195Z,78.86
2023-05-22T03:06:45.581Z,79.48
2023-05-22T03:09:16.140Z,79.26
2023-05-22T03:11:44.426Z,78.74
2023-05-22T03:14:12.397Z,78.17
2023-05-22T03:16:40.488Z,78.51
2023-05-22T03:19:10.108Z,78.89
2023-05-22T03:21:38.248Z,79.04
2023-05-22T03:24:07.212Z,79.54
2023-05-22T03:26:37.390Z,80.87
2023-05-22T03:29:05.730Z,80.79
2023-05-22T03:31:35.155Z,80.83
2023-05-22T03:34:03.719Z,80.67
2023-05-22T03:36:34.137Z,80.69
2023-05-22T03:39:02.562Z,80.48
2023-05-22T03:41:31.400Z,79.93
2023-05-22T03:44:01.015Z,79.53
2023-05-22T03:46:29.556Z,79.14
2023-05-22T03:48:58.163Z,79.52
2023-05-22T03:51:26.271Z,78.92
2023-05-22T03:53:54.446Z,79.83
2023-05-22T03:56:22.769Z,79.58
2023-05-22T03:58:51.484Z,79.76
2023-05-22T04:01:21.139Z,80.37
2023-05-22T04:03:49.150Z,80.76
2023-05-22T04:06:17.674Z,81.17
2023-05-22T04:08:45.735Z,81.72
2023-05-22T04:11:15.812Z,81.80
2023-05-22T04:13:43.884Z,81.73
2023-05-22T04:16:11.949Z,81.87
2023-05-22T04:18:41.695Z,81.82
2023-05-22T04:21:10.222Z,81.81
2023-05-22T04:23:38.752Z,81.67
2023-05-22T04:26:08.889Z,81.51
2023-05-22T04:28:38.154Z,81.73
2023-05-22T04:31:07.750Z,80.59
2023-05-22T04:33:36.586Z,81.01
2023-05-22T04:36:09.807Z,81.40
2023-05-22T04:38:39.245Z,81.52
2023-05-22T04:41:08.930Z,81.97
2023-05-22T04:43:38.835Z,81.62
2023-05-22T04:46:08.453Z,81.43
2023-05-22T04:48:36.963Z,81.00
2023-05-22T04:51:07.215Z,80.82
2023-05-22T04:53:36.117Z,81.17
2023-05-22T04:56:04.585Z,81.25
2023-05-22T04:58:32.917Z,81.32
2023-05-22T05:01:01.541Z,81.33
2023-05-22T05:03:30.081Z,81.10
2023-05-22T05:05:59.615Z,81.31
2023-05-22T05:08:29.411Z,81.35
2023-05-22T05:10:57.463Z,81.48
2023-05-22T05:13:25.657Z,81.76
2023-05-22T05:15:54.259Z,81.26
2023-05-22T05:18:22.704Z,81.50
2023-05-22T05:20:50.800Z,81.88
2023-05-22T05:23:19.063Z,81.30
2023-05-22T05:25:48.817Z,82.40
2023-05-22T05:28:17.157Z,82.80
2023-05-22T05:30:45.390Z,83.46
2023-05-22T05:33:13.550Z,83.43
2023-05-22T05:35:43.092Z,83.30
2023-05-22T05:38:11.412Z,82.80
2023-05-22T05:40:39.947Z,82.55
2023-05-22T05:43:09.956Z,82.43
2023-05-22T05:45:38.234Z,82.28
2023-05-22T05:48:07.179Z,82.15
2023-05-22T05:50:35.543Z,82.05
2023-05-22T05:53:05.099Z,82.36
2023-05-22T05:55:34.626Z,83.04
2023-05-22T05:58:03.086Z,83.22
2023-05-22T06:00:32.878Z,83.25
2023-05-22T06:03:01.336Z,83.38
2023-05-22T06:05:30.562Z,83.39
2023-05-22T06:07:59.043Z,83.04
2023-05-22T06:10:27.265Z,81.97
2023-05-22T06:12:55.414Z,81.79
2023-05-22T06:15:23.403Z,81.39
2023-05-22T06:17:52.867Z,81.22
2023-05-22T06:20:20.896Z,80.64
2023-05-22T06:22:48.882Z,80.20
2023-05-22T06:25:17.308Z,79.87
2023-05-22T06:27:45.696Z,79.64
2023-05-22T06:30:16.830Z,79.26
2023-05-22T06:32:48.305Z,79.31
2023-05-22T06:35:18.452Z,79.47
2023-05-22T06:37:46.742Z,79.38
2023-05-22T06:40:14.982Z,79.30
2023-05-22T06:42:44.838Z,78.48
2023-05-22T06:45:13.467Z,78.39
2023-05-22T06:47:45.051Z,77.94
2023-05-22T06:50:13.488Z,77.69
2023-05-22T06:52:43.433Z,77.43
2023-05-22T06:55:11.440Z,77.10
2023-05-22T06:57:39.874Z,77.18
2023-05-22T07:00:11.640Z,77.31
2023-05-22T07:02:40.295Z,77.20
2023-05-22T07:05:09.208Z,77.19
2023-05-22T07:07:37.218Z,76.78
2023-05-22T07:10:07.972Z,75.89
2023-05-22T07:12:36.496Z,75.13
2023-05-22T07:15:04.933Z,74.55
2023-05-22T07:17:32.989Z,74.10
2023-05-22T07:20:00.964Z,73.44
2023-05-22T07:22:29.031Z,71.68
2023-05-22T07:24:57.149Z,71.06
2023-05-22T07:27:26.540Z,69.83
2023-05-22T07:29:54.653Z,69.50
2023-05-22T07:32:22.793Z,68.57
2023-05-22T07:34:51.088Z,68.80
2023-05-22T07:37:19.350Z,68.60
2023-05-22T07:39:47.886Z,67.69
2023-05-22T07:42:15.932Z,66.76
2023-05-22T07:44:45.451Z,66.87
2023-05-22T07:47:13.600Z,66.31
2023-05-22T07:49:41.589Z,65.70
2023-05-22T07:52:09.734Z,64.58
2023-05-22T07:54:37.779Z,65.12
2023-05-22T07:57:08.240Z,65.24
2023-05-22T07:59:37.794Z,64.87
2023-05-22T08:02:10.203Z,63.52
2023-05-22T08:04:38.586Z,62.58
2023-05-22T08:07:07.010Z,62.99
2023-05-22T08:09:35.761Z,62.08
2023-05-22T08:12:03.922Z,63.28
2023-05-22T08:14:35.547Z,61.50
2023-05-22T08:17:03.604Z,60.33
2023-05-22T08:19:33.498Z,61.09
2023-05-22T08:22:01.586Z,61.11
2023-05-22T08:24:30.648Z,61.95
2023-05-22T08:27:00.827Z,62.27
2023-05-22T08:29:30.113Z,61.38
2023-05-22T08:31:58.610Z,60.93
2023-05-22T08:34:27.095Z,60.12
2023-05-22T08:36:56.484Z,60.38
2023-05-22T08:39:24.820Z,60.38
2023-05-22T08:41:53.325Z,60.29
2023-05-22T08:44:22.114Z,59.51
2023-05-22T08:46:52.793Z,58.70
2023-05-22T08:49:24.274Z,58.07
2023-05-22T08:52:04.450Z,58.08
2023-05-22T08:54:35.104Z,57.24
2023-05-22T08:57:03.962Z,57.77
2023-05-22T08:59:35.465Z,58.99
2023-05-22T09:02:06.818Z,58.45
2023-05-22T09:04:35.628Z,56.68
2023-05-22T09:07:06.809Z,57.83
2023-05-22T09:09:38.433Z,57.59
2023-05-22T09:12:09.388Z,56.54
2023-05-22T09:14:41.074Z,55.03
2023-05-22T09:17:11.384Z,54.52
2023-05-22T09:19:44.173Z,53.99
2023-05-22T09:22:14.685Z,54.96
2023-05-22T09:24:44.156Z,53.81
2023-05-22T09:27:13.233Z,54.76
2023-05-22T09:29:51.465Z,54.38
2023-05-22T09:32:20.989Z,54.64
2023-05-22T09:34:49.345Z,53.80
2023-05-22T09:37:19.409Z,53.54
2023-05-22T09:39:51.527Z,53.37
2023-05-22T09:42:19.924Z,52.94
2023-05-22T09:44:50.334Z,53.01
2023-05-22T09:47:18.374Z,52.56
2023-05-22T09:49:47.613Z,52.59
2023-05-22T09:52:17.579Z,52.98
2023-05-22T09:54:55.023Z,53.37
2023-05-22T09:57:25.007Z,52.81
2023-05-22T09:59:58.140Z,51.40
2023-05-22T10:02:27.690Z,52.17
2023-05-22T10:04:55.833Z,51.15
2023-05-22T10:07:26.026Z,52.47
2023-05-22T10:10:00.986Z,52.79
2023-05-22T10:12:33.857Z,51.06
2023-05-22T10:15:04.030Z,50.86
2023-05-22T10:17:32.993Z,51.11
2023-05-22T10:20:01.148Z,51.11
2023-05-22T10:22:30.971Z,51.51
2023-05-22T10:25:02.025Z,48.65
2023-05-22T10:27:30.032Z,48.73
2023-05-22T10:30:05.225Z,49.95
2023-05-22T10:32:37.169Z,51.03
2023-05-22T10:35:18.583Z,48.90
2023-05-22T10:37:52.042Z,48.60
2023-05-22T10:40:29.249Z,49.59
2023-05-22T10:43:01.626Z,49.79
2023-05-22T10:45:30.442Z,49.47
2023-05-22T10:48:06.695Z,49.83
2023-05-22T10:50:35.407Z,47.33
2023-05-22T10:53:24.526Z,47.71
2023-05-22T10:55:55.911Z,48.34
2023-05-22T10:58:28.592Z,46.72
2023-05-22T11:01:11.004Z,47.79
2023-05-22T11:03:53.470Z,47.02
2023-05-22T11:06:38.854Z,46.59
2023-05-22T11:09:28.125Z,46.26
2023-05-22T11:12:21.131Z,46.74
2023-05-22T11:14:51.779Z,47.58
2023-05-22T11:17:23.265Z,47.40
2023-05-22T11:20:02.607Z,46.25
2023-05-22T11:22:32.565Z,43.79
2023-05-22T11:25:01.063Z,44.90
2023-05-22T11:27:31.207Z,44.09
2023-05-22T11:30:01.902Z,45.49
2023-05-22T11:32:30.466Z,45.48
2023-05-22T11:34:58.833Z,45.76
2023-05-22T11:37:26.807Z,44.49
2023-05-22T11:39:58.051Z,44.50
2023-05-22T11:42:26.311Z,45.12
2023-05-22T11:44:56.940Z,43.82
2023-05-22T11:47:26.711Z,44.02
2023-05-22T11:49:55.600Z,43.78
2023-05-22T11:52:24.226Z,42.84
2023-05-22T11:54:53.873Z,41.28
2023-05-22T11:57:24.315Z,42.05
2023-05-22T11:59:52.399Z,39.71
2023-05-22T12:02:21.975Z,40.07
2023-05-22T12:04:55.552Z,40.92
2023-05-22T12:07:24.128Z,42.05
2023-05-22T12:09:52.381Z,39.90
2023-05-22T12:12:22.737Z,40.52
2023-05-22T12:14:51.325Z,40.71
2023-05-22T12:17:19.586Z,39.82
2023-05-22T12:19:49.138Z,40.68
2023-05-22T12:22:17.242Z,41.56
2023-05-22T12:24:47.158Z,39.83
2023-05-22T12:27:16.109Z,41.18
2023-05-22T12:29:44.342Z,40.59
2023-05-22T12:32:13.561Z,42.84
2023-05-22T12:34:45.625Z,42.32
2023-05-22T12:37:22.890Z,41.38
2023-05-22T12:39:58.220Z,40.72
2023-05-22T12:42:26.533Z,41.31
2023-05-22T12:44:55.511Z,40.16
2023-05-22T12:47:24.575Z,41.65
2023-05-22T12:49:53.091Z,40.22
2023-05-22T12:52:22.541Z,39.79
2023-05-22T12:54:51.972Z,40.57
2023-05-22T12:57:20.079Z,40.03
2023-05-22T12:59:48.488Z,39.61
2023-05-22T13:02:16.955Z,41.07
2023-05-22T13:04:47.949Z,40.57
2023-05-22T13:07:16.318Z,41.72
2023-05-22T13:09:45.888Z,40.95
2023-05-22T13:12:14.448Z,40.81
2023-05-22T13:14:42.802Z,41.03
2023-05-22T13:17:11.148Z,42.12
2023-05-22T13:19:39.428Z,42.68
2023-05-22T13:22:09.132Z,42.27
2023-05-22T13:24:37.405Z,41.95
2023-05-22T13:27:07.706Z,41.90
2023-05-22T13:29:36.190Z,40.83
2023-05-22T13:32:05.236Z,40.35
2023-05-22T13:34:33.926Z,40.33
2023-05-22T13:37:02.894Z,40.20
2023-05-22T13:39:31.313Z,40.96
2023-05-22T13:41:59.894Z,40.69
2023-05-22T13:44:30.015Z,40.14
2023-05-22T13:46:58.585Z,40.17
2023-05-22T13:49:28.035Z,39.29
2023-05-22T13:51:56.093Z,39.69
2023-05-22T13:54:24.181Z,39.11
2023-05-22T13:56:52.203Z,38.84
2023-05-22T13:59:20.257Z,39.04
2023-05-22T14:01:49.867Z,39.01
2023-05-22T14:04:18.152Z,39.02
2023-05-22T14:06:46.183Z,39.51
2023-05-22T14:09:14.172Z,39.50
2023-05-22T14:11:42.386Z,38.84
2023-05-22T14:14:10.366Z,40.51
2023-05-22T14:16:38.436Z,40.32
2023-05-22T14:19:08.229Z,41.43
2023-05-22T14:21:36.639Z,41.29
2023-05-22T14:24:05.382Z,41.22
2023-05-22T14:26:33.517Z,41.12
2023-05-22T14:29:01.898Z,41.13
2023-05-22T14:31:30.408Z,40.59
2023-05-22T14:33:58.901Z,40.20
2023-05-22T14:36:28.410Z,38.63
2023-05-22T14:38:57.696Z,39.35
2023-05-22T14:41:26.626Z,37.98
2023-05-22T14:43:55.011Z,37.56
2023-05-22T14:46:23.317Z,38.02
2023-05-22T14:49:03.412Z,36.86
2023-05-22T14:51:32.941Z,36.50
2023-05-22T14:54:01.283Z,36.68
2023-05-22T14:56:35.081Z,37.00
2023-05-22T14:59:03.563Z,36.00
2023-05-22T15:01:31.667Z,35.05
2023-05-22T15:04:00.065Z,35.82
2023-05-22T15:06:28.285Z,37.01
2023-05-22T15:08:58.148Z,37.29
2023-05-22T15:11:26.604Z,36.13
2023-05-22T15:13:55.638Z,36.70
2023-05-22T15:16:25.705Z,36.47
2023-05-22T15:18:56.317Z,37.26
2023-05-22T15:21:25.785Z,36.67
2023-05-22T15:23:54.262Z,36.38
2023-05-22T15:26:23.779Z,36.02
2023-05-22T15:28:51.982Z,36.38
2023-05-22T15:31:20.307Z,36.16
2023-05-22T15:33:48.617Z,37.77
2023-05-22T15:36:18.818Z,37.69
2023-05-22T15:38:47.161Z,37.39
2023-05-22T15:41:21.304Z,37.89
2023-05-22T15:43:52.489Z,37.53
2023-05-22T15:46:21.890Z,37.82
2023-05-22T15:48:49.868Z,38.18
2023-05-22T15:51:18.195Z,38.66
2023-05-22T15:53:47.045Z,40.56
2023-05-22T15:56:15.111Z,45.49
2023-05-22T15:58:43.190Z,45.61
2023-05-22T16:01:13.629Z,46.70
2023-05-22T16:03:43.870Z,51.69
2023-05-22T16:06:11.975Z,49.49
2023-05-22T16:08:40.434Z,50.80
2023-05-22T16:11:08.527Z,52.43
2023-05-22T16:13:36.653Z,55.00
2023-05-22T16:16:06.199Z,56.99
2023-05-22T16:18:35.985Z,58.50
2023-05-22T16:21:04.849Z,60.26
2023-05-22T16:23:32.964Z,61.22
2023-05-22T16:26:01.141Z,62.56
2023-05-22T16:28:29.198Z,62.42
2023-05-22T16:30:57.186Z,65.11
2023-05-22T16:33:25.447Z,66.32
2023-05-22T16:35:55.141Z,68.57
2023-05-22T16:38:23.080Z,69.76
2023-05-22T16:40:50.972Z,70.63
2023-05-22T16:43:18.939Z,70.77
2023-05-22T16:45:51.095Z,71.07
2023-05-22T16:48:19.715Z,72.08
2023-05-22T16:50:47.714Z,72.98
2023-05-22T16:53:18.034Z,73.71
2023-05-22T16:55:46.329Z,73.20
2023-05-22T16:58:14.316Z,73.49
2023-05-22T17:00:43.339Z,72.34
2023-05-22T17:03:12.017Z,73.42
2023-05-22T17:05:40.712Z,73.60
2023-05-22T17:08:09.091Z,74.33
2023-05-22T17:10:39.172Z,75.89
2023-05-22T17:13:10.372Z,75.96
2023-05-22T17:15:44.229Z,76.90
2023-05-22T17:18:20.139Z,77.94
2023-05-22T17:20:48.578Z,78.60
2023-05-22T17:23:16.948Z,77.63
2023-05-22T17:25:49.691Z,78.37
2023-05-22T17:28:20.414Z,78.87
2023-05-22T17:30:56.552Z,79.15
2023-05-22T17:33:27.225Z,79.43
2023-05-22T17:35:55.428Z,78.30
2023-05-22T17:38:23.416Z,77.30
2023-05-22T17:40:53.639Z,77.36
2023-05-22T17:43:21.586Z,77.10
2023-05-22T17:45:51.056Z,77.04
2023-05-22T17:48:23.648Z,77.09
2023-05-22T17:50:52.203Z,76.67
2023-05-22T17:53:21.145Z,77.15
2023-05-22T17:55:51.030Z,78.39
2023-05-22T17:58:21.205Z,77.38
2023-05-22T18:00:49.950Z,77.60
2023-05-22T18:03:20.434Z,77.33
2023-05-22T18:05:48.990Z,76.71
2023-05-22T18:08:17.435Z,76.85
2023-05-22T18:10:45.678Z,77.63
2023-05-22T18:13:13.836Z,77.69
2023-05-22T18:15:44.962Z,78.72
2023-05-22T18:18:13.734Z,77.31
2023-05-22T18:20:41.976Z,77.76
2023-05-22T18:23:10.343Z,77.54
2023-05-22T18:25:38.748Z,78.00
2023-05-22T18:28:08.374Z,78.16
2023-05-22T18:30:36.802Z,78.82
2023-05-22T18:33:09.119Z,80.79
2023-05-22T18:35:37.366Z,81.77
2023-05-22T18:38:05.383Z,82.13
2023-05-22T18:40:33.445Z,82.09
2023-05-22T18:43:01.507Z,82.38
2023-05-22T18:45:29.557Z,82.81
2023-05-22T18:47:57.708Z,82.56
2023-05-22T18:50:27.859Z,83.02
2023-05-22T18:52:56.559Z,82.74
2023-05-22T18:55:24.738Z,83.48
2023-05-22T18:57:53.192Z,83.27
2023-05-22T19:00:21.383Z,83.46
2023-05-22T19:02:49.486Z,83.13
2023-05-22T19:05:17.490Z,82.91
2023-05-22T19:07:48.369Z,83.35
2023-05-22T19:10:16.743Z,82.93
2023-05-22T19:12:45.154Z,82.71
2023-05-22T19:15:13.317Z,82.65
2023-05-22T19:17:41.335Z,82.57
2023-05-22T19:20:10.280Z,82.66
2023-05-22T19:22:41.460Z,82.24
2023-05-22T19:25:30.177Z,82.35
2023-05-22T19:27:58.201Z,81.90
2023-05-22T19:30:26.264Z,81.59
2023-05-22T19:32:55.952Z,80.43
2023-05-22T19:35:24.467Z,80.79
2023-05-22T19:37:59.988Z,81.21
2023-05-22T19:40:29.446Z,82.10
2023-05-22T19:42:57.961Z,82.80
2023-05-22T19:45:27.687Z,82.75
2023-05-22T19:47:57.082Z,83.08
2023-05-22T19:50:26.317Z,83.19
2023-05-22T19:52:54.625Z,83.50
2023-05-22T19:55:22.942Z,83.11
2023-05-22T19:57:57.620Z,83.64
2023-05-22T20:00:31.078Z,84.64
2023-05-22T20:02:59.499Z,85.30
2023-05-22T20:05:27.834Z,84.96
2023-05-22T20:07:55.991Z,84.71
2023-05-22T20:10:27.086Z,84.74
2023-05-22T20:12:59.657Z,84.60
2023-05-22T20:15:37.681Z,84.55
2023-05-22T20:18:06.918Z,85.27
2023-05-22T20:20:38.134Z,85.50
2023-05-22T20:23:09.560Z,85.45
2023-05-22T20:25:40.549Z,85.32
2023-05-22T20:28:13.198Z,84.94
2023-05-22T20:30:44.237Z,85.13
2023-05-22T20:33:13.827Z,85.59
2023-05-22T20:35:43.361Z,85.57
2023-05-22T20:38:14.518Z,85.20
2023-05-22T20:40:48.002Z,85.04
2023-05-22T20:43:22.682Z,84.36
2023-05-22T20:45:51.234Z,84.91
2023-05-22T20:48:19.553Z,84.85
2023-05-22T20:50:50.879Z,84.17
2023-05-22T20:53:21.971Z,84.68
2023-05-22T20:55:53.449Z,84.80
2023-05-22T20:58:26.165Z,84.71
2023-05-22T21:00:59.719Z,84.46
2023-05-22T21:03:30.522Z,84.47
2023-05-22T21:06:01.874Z,85.18
2023-05-22T21:08:30.177Z,84.76
2023-05-22T21:11:03.474Z,85.11
2023-05-22T21:13:33.343Z,84.25
2023-05-22T21:16:01.984Z,84.19
2023-05-22T21:18:30.420Z,84.41
2023-05-22T21:20:58.942Z,84.24
2023-05-22T21:23:32.215Z,83.92
2023-05-22T21:26:00.568Z,83.84
2023-05-22T21:28:30.592Z,83.60
2023-05-22T21:31:02.522Z,84.01
2023-05-22T21:33:33.288Z,83.32
2023-05-22T21:36:06.683Z,83.15
2023-05-22T21:38:38.103Z,83.61
2023-05-22T21:41:06.662Z,83.03
2023-05-22T21:43:37.795Z,82.34
2023-05-22T21:46:11.440Z,83.00
2023-05-22T21:48:39.674Z,82.94
2023-05-22T21:51:07.892Z,82.74
2023-05-22T21:53:36.093Z,83.28
2023-05-22T21:56:10.265Z,82.93
2023-05-22T21:58:40.414Z,82.77
2023-05-22T22:01:12.894Z,82.75
2023-05-22T22:03:41.146Z,82.89
2023-05-22T22:06:10.314Z,83.36
2023-05-22T22:08:38.439Z,83.21
2023-05-22T22:11:20.804Z,83.61
2023-05-22T22:13:49.744Z,83.75
2023-05-22T22:16:23.963Z,83.81
2023-05-22T22:18:55.895Z,83.80
2023-05-22T22:21:37.955Z,83.96
2023-05-22T22:24:25.236Z,84.16
2023-05-22T22:27:12.070Z,83.49
2023-05-22T22:29:43.847Z,83.54
2023-05-22T22:32:13.871Z,83.83
2023-05-22T22:34:43.280Z,83.48
2023-05-22T22:37:11.736Z,83.04
2023-05-22T22:39:40.041Z,82.96
2023-05-22T22:42:08.970Z,83.19
2023-05-22T22:44:40.575Z,82.99
2023-05-22T22:47:09.857Z,82.99
2023-05-22T22:49:39.372Z,82.87
2023-05-22T22:52:07.783Z,82.74
2023-05-22T22:54:36.042Z,82.22
2023-05-22T22:57:04.859Z,82.52
2023-05-22T22:59:35.629Z,81.46
2023-05-22T23:02:07.611Z,81.23
2023-05-22T23:04:38.654Z,81.37
2023-05-22T23:07:12.174Z,82.25
2023-05-22T23:09:41.085Z,82.65
2023-05-22T23:12:10.139Z,82.32
2023-05-22T23:14:39.042Z,82.85
2023-05-22T23:17:07.829Z,83.32
2023-05-22T23:19:36.598Z,83.19
2023-05-22T23:22:08.092Z,83.19
2023-05-22T23:24:40.548Z,82.96
2023-05-22T23:27:12.486Z,82.78
2023-05-22T23:29:44.505Z,82.55
2023-05-22T23:32:14.689Z,82.96
2023-05-22T23:34:43.306Z,83.00
2023-05-22T23:37:11.630Z,83.00
2023-05-22T23:39:41.095Z,83.78
2023-05-22T23:42:10.019Z,83.24
2023-05-22T23:44:38.106Z,83.86
2023-05-22T23:47:06.909Z,83.61
2023-05-22T23:49:35.324Z,84.07
2023-05-22T23:52:03.891Z,83.79
2023-05-22T23:54:31.942Z,83.83
2023-05-22T23:57:01.601Z,83.89
2023-05-22T23:59:31.371Z,83.87
